Time;durP1;ratioP1;P1;durP2;ratioP2;P2;SDS_P1;SDS_P2;PMS_P1;PMS_P2;Temp;Humidity;BMP_temperature;BMP_pressure;BME280_temperature;BME280_humidity;BME280_pressure;Samples;Min_cycle;Max_cycle;Signal;HPM_P1;HPM_P2
2023/10/24 00:02:16;;;;;;;3.58;1.75;;;19.80;92.90;;;;;;4880347;29;20431;-87
2023/10/24 00:04:42;;;;;;;3.75;2.10;;;19.80;92.90;;;;;;4879398;29;20037;-87
2023/10/24 00:07:07;;;;;;;3.80;2.10;;;19.80;93.00;;;;;;4847488;29;20034;-87
2023/10/24 00:09:33;;;;;;;3.13;1.90;;;19.80;93.30;;;;;;4861031;29;20490;-87
2023/10/24 00:11:59;;;;;;;6.13;2.70;;;19.80;93.00;;;;;;4861594;29;20033;-86
2023/10/24 00:14:24;;;;;;;4.20;2.08;;;19.80;93.10;;;;;;4879633;29;20045;-88
2023/10/24 00:16:50;;;;;;;4.15;1.70;;;19.80;93.20;;;;;;4878842;29;20037;-88
2023/10/24 00:19:16;;;;;;;3.67;2.17;;;19.80;93.30;;;;;;4857239;29;20414;-87
2023/10/24 00:21:41;;;;;;;6.57;2.03;;;19.80;93.40;;;;;;4880476;29;20029;-88
2023/10/24 00:24:08;;;;;;;4.38;2.58;;;19.70;93.60;;;;;;4882871;29;20561;-87
2023/10/24 00:26:34;;;;;;;3.75;2.05;;;19.70;93.70;;;;;;4883423;29;20028;-87
2023/10/24 00:28:59;;;;;;;4.15;2.05;;;19.60;93.80;;;;;;4883286;29;20470;-88
2023/10/24 00:31:25;;;;;;;5.70;2.58;;;19.70;94.10;;;;;;4883340;29;20029;-88
2023/10/24 00:33:51;;;;;;;7.28;2.67;;;19.70;94.10;;;;;;4883110;29;20045;-88
2023/10/24 00:36:17;;;;;;;5.03;2.20;;;19.70;94.20;;;;;;4865997;29;20116;-88
2023/10/24 00:38:42;;;;;;;6.07;2.85;;;19.70;94.30;;;;;;4883335;29;20033;-88
2023/10/24 00:41:08;;;;;;;3.95;2.17;;;19.70;94.40;;;;;;4882038;29;20025;-88
2023/10/24 00:43:33;;;;;;;4.53;2.42;;;19.60;94.40;;;;;;4881872;29;20116;-87
2023/10/24 00:45:59;;;;;;;6.03;3.53;;;19.60;94.50;;;;;;4881356;29;20363;-88
2023/10/24 00:48:25;;;;;;;3.75;2.13;;;19.60;94.80;;;;;;4864779;29;20037;-88
2023/10/24 00:50:51;;;;;;;7.22;2.83;;;19.50;94.80;;;;;;4878767;29;20505;-88
2023/10/24 00:53:17;;;;;;;4.57;2.78;;;19.50;94.90;;;;;;4881419;29;20051;-88
2023/10/24 00:55:42;;;;;;;13.57;3.13;;;19.50;95.00;;;;;;4881058;29;20033;-88
2023/10/24 00:58:09;;;;;;;5.82;2.85;;;19.50;95.10;;;;;;4882576;29;20041;-88
2023/10/24 01:00:36;;;;;;;7.13;2.65;;;19.50;95.20;;;;;;4881735;29;20508;-88
2023/10/24 01:03:05;;;;;;;5.13;2.80;;;19.50;95.20;;;;;;4866720;29;20017;-88
2023/10/24 01:05:31;;;;;;;4.80;2.90;;;19.50;95.30;;;;;;4865799;29;20025;-88
2023/10/24 01:07:57;;;;;;;5.70;2.85;;;19.40;95.30;;;;;;4882890;29;20453;-88
2023/10/24 01:10:23;;;;;;;6.35;3.08;;;19.40;95.30;;;;;;4882997;29;20060;-89
2023/10/24 01:12:48;;;;;;;6.97;3.70;;;19.40;95.40;;;;;;4882566;29;20096;-88
2023/10/24 01:15:14;;;;;;;4.97;3.13;;;19.40;95.40;;;;;;4882310;29;20130;-88
2023/10/24 01:17:50;;;;;;;6.90;3.58;;;19.30;95.60;;;;;;4882718;29;20123;-89
2023/10/24 01:20:17;;;;;;;5.40;3.30;;;19.30;95.90;;;;;;4881097;29;20036;-89
2023/10/24 01:22:45;;;;;;;4.15;2.63;;;19.30;95.90;;;;;;4882626;29;20029;-89
2023/10/24 01:25:13;;;;;;;5.40;3.08;;;19.20;96.00;;;;;;4870312;29;20029;-88
2023/10/24 01:27:42;;;;;;;4.60;2.72;;;19.20;96.10;;;;;;4880440;29;20037;-89
2023/10/24 01:30:10;;;;;;;8.52;3.70;;;19.20;96.20;;;;;;4882084;29;20520;-88
2023/10/24 01:32:37;;;;;;;6.97;3.20;;;19.20;96.40;;;;;;4881733;29;20046;-87
2023/10/24 01:35:02;;;;;;;6.53;3.00;;;19.20;96.30;;;;;;4880262;29;20021;-87
2023/10/24 01:37:28;;;;;;;6.85;3.33;;;19.20;96.40;;;;;;4881732;29;20043;-88
2023/10/24 01:39:54;;;;;;;5.00;3.05;;;19.20;96.40;;;;;;4881060;29;20108;-88
2023/10/24 01:42:20;;;;;;;4.43;2.70;;;19.20;96.40;;;;;;4881697;29;20056;-88
2023/10/24 01:44:45;;;;;;;4.78;3.08;;;19.20;96.40;;;;;;4881256;29;20029;-88
2023/10/24 01:47:11;;;;;;;7.53;3.15;;;19.20;96.40;;;;;;4881049;29;20501;-88
2023/10/24 01:49:37;;;;;;;9.60;3.65;;;19.20;96.50;;;;;;4881557;29;20052;-87
2023/10/24 01:52:03;;;;;;;8.63;3.10;;;19.20;96.60;;;;;;4881459;29;20033;-86
2023/10/24 01:54:28;;;;;;;5.28;3.17;;;19.20;96.60;;;;;;4881549;29;20037;-87
2023/10/24 01:56:54;;;;;;;5.97;3.33;;;19.20;96.60;;;;;;4881474;29;20496;-87
2023/10/24 01:59:20;;;;;;;5.43;3.13;;;19.20;96.80;;;;;;4881211;29;20021;-85
2023/10/24 02:01:45;;;;;;;3.80;2.67;;;19.10;96.80;;;;;;4881464;29;20025;-87
2023/10/24 02:04:11;;;;;;;5.85;3.30;;;19.10;96.80;;;;;;4881784;29;20021;-87
2023/10/24 02:06:37;;;;;;;6.50;3.00;;;19.10;96.70;;;;;;4881416;29;20053;-87
2023/10/24 02:09:03;;;;;;;5.95;3.42;;;19.10;96.70;;;;;;4881283;29;20081;-88
2023/10/24 02:11:29;;;;;;;6.32;2.63;;;19.10;96.70;;;;;;4864539;29;20040;-87
2023/10/24 02:13:54;;;;;;;3.42;2.88;;;19.10;96.80;;;;;;4864588;29;20033;-87
2023/10/24 02:16:20;;;;;;;8.35;3.17;;;19.10;96.90;;;;;;4881368;29;20131;-88
2023/10/24 02:18:46;;;;;;;5.18;2.65;;;19.10;96.80;;;;;;4881562;29;20045;-88
2023/10/24 02:21:11;;;;;;;5.60;3.35;;;19.00;96.80;;;;;;4881047;29;20045;-88
2023/10/24 02:23:37;;;;;;;3.80;2.55;;;19.00;96.90;;;;;;4881308;29;20033;-88
2023/10/24 02:26:03;;;;;;;4.90;2.60;;;19.00;96.90;;;;;;4880736;29;20025;-88
2023/10/24 02:28:28;;;;;;;5.35;3.05;;;19.00;96.80;;;;;;4881525;29;20044;-87
2023/10/24 02:30:54;;;;;;;5.35;2.20;;;18.90;96.90;;;;;;4881007;29;20061;-88
2023/10/24 02:33:20;;;;;;;6.47;2.38;;;18.90;96.80;;;;;;4881189;29;20040;-88
2023/10/24 02:35:45;;;;;;;4.25;2.45;;;18.90;96.80;;;;;;4881012;29;20047;-88
2023/10/24 02:38:11;;;;;;;4.82;2.60;;;18.80;96.90;;;;;;4881540;29;20029;-88
2023/10/24 02:40:37;;;;;;;3.05;2.15;;;18.90;96.90;;;;;;4880748;29;20060;-88
2023/10/24 02:43:03;;;;;;;5.55;2.58;;;18.90;96.90;;;;;;4880503;29;20053;-88
2023/10/24 02:45:28;;;;;;;4.03;2.45;;;18.90;96.90;;;;;;4880097;29;20064;-87
2023/10/24 02:47:54;;;;;;;3.30;2.15;;;18.80;96.90;;;;;;4880904;29;20037;-88
2023/10/24 02:50:20;;;;;;;2.47;2.08;;;18.80;97.00;;;;;;4880774;29;20037;-88
2023/10/24 02:52:46;;;;;;;4.90;2.20;;;18.70;96.90;;;;;;4864747;29;20036;-88
2023/10/24 02:55:11;;;;;;;5.40;2.10;;;18.80;96.90;;;;;;4880233;29;20032;-87
2023/10/24 02:57:37;;;;;;;6.57;2.15;;;18.80;96.90;;;;;;4880402;29;20069;-87
2023/10/24 03:00:03;;;;;;;3.72;2.00;;;18.80;96.90;;;;;;4880690;29;20037;-88
2023/10/24 03:02:30;;;;;;;3.88;2.25;;;18.80;97.00;;;;;;4864033;29;20112;-88
2023/10/24 03:04:56;;;;;;;2.65;2.10;;;18.80;97.00;;;;;;4880283;29;20031;-89
2023/10/24 03:07:23;;;;;;;2.03;1.63;;;18.80;97.00;;;;;;4881288;29;20095;-89
2023/10/24 03:09:49;;;;;;;3.28;2.20;;;18.80;97.20;;;;;;4880531;29;20025;-87
2023/10/24 03:12:15;;;;;;;4.63;2.40;;;18.80;96.90;;;;;;4880633;29;20377;-88
2023/10/24 03:14:41;;;;;;;3.88;2.10;;;18.80;97.00;;;;;;4880566;29;20443;-89
2023/10/24 03:17:08;;;;;;;4.88;2.40;;;18.80;97.00;;;;;;4880644;29;20036;-88
2023/10/24 03:19:33;;;;;;;3.15;2.13;;;18.80;97.00;;;;;;4880295;29;20056;-89
2023/10/24 03:22:00;;;;;;;5.35;2.00;;;18.80;97.00;;;;;;4876164;29;20474;-89
2023/10/24 03:24:28;;;;;;;4.72;2.15;;;18.80;97.10;;;;;;4863531;29;20029;-89
2023/10/24 03:26:54;;;;;;;5.70;2.20;;;18.80;97.00;;;;;;4880673;29;20021;-88
2023/10/24 03:29:19;;;;;;;3.92;2.22;;;18.70;96.80;;;;;;4880706;29;20048;-89
2023/10/24 03:31:45;;;;;;;3.10;1.85;;;18.70;96.90;;;;;;4880225;29;20032;-89
2023/10/24 03:34:11;;;;;;;4.20;1.90;;;18.60;96.80;;;;;;4880208;29;20076;-89
2023/10/24 03:36:37;;;;;;;2.50;1.52;;;18.60;96.90;;;;;;4880676;29;20032;-89
2023/10/24 03:39:03;;;;;;;3.97;1.67;;;18.50;96.90;;;;;;4880070;29;20038;-88
2023/10/24 03:41:29;;;;;;;4.00;1.90;;;18.50;96.90;;;;;;4879851;29;20037;-88
2023/10/24 03:43:54;;;;;;;3.60;1.95;;;18.50;96.90;;;;;;4862846;29;20375;-88
2023/10/24 03:46:20;;;;;;;2.25;1.60;;;18.50;97.00;;;;;;4880227;29;20029;-89
2023/10/24 03:48:46;;;;;;;2.67;1.60;;;18.50;97.00;;;;;;4863248;29;20077;-88
2023/10/24 03:51:11;;;;;;;4.07;2.45;;;18.40;97.00;;;;;;4896222;29;20028;-88
2023/10/24 03:53:38;;;;;;;6.15;2.35;;;18.50;97.10;;;;;;4897175;29;20036;-88
2023/10/24 03:56:04;;;;;;;3.65;2.05;;;18.50;97.10;;;;;;4879665;29;20049;-88
2023/10/24 03:58:30;;;;;;;3.92;1.90;;;18.50;97.10;;;;;;4880453;29;20036;-88
2023/10/24 04:01:01;;;;;;;3.65;1.70;;;18.50;97.10;;;;;;4879428;29;20513;-88
2023/10/24 04:03:27;;;;;;;2.72;1.85;;;18.50;97.00;;;;;;4863506;29;20485;-89
2023/10/24 04:05:53;;;;;;;6.45;2.25;;;18.60;97.00;;;;;;4878278;29;20025;-89
2023/10/24 04:08:19;;;;;;;4.20;1.80;;;18.60;97.00;;;;;;4863218;29;20037;-89
2023/10/24 04:10:44;;;;;;;3.60;1.77;;;18.60;97.00;;;;;;4880034;29;20489;-88
2023/10/24 04:13:10;;;;;;;3.35;1.83;;;18.60;97.10;;;;;;4879822;29;20031;-89
2023/10/24 04:15:36;;;;;;;2.92;1.88;;;18.60;97.00;;;;;;4878664;29;20029;-89
2023/10/24 04:18:03;;;;;;;3.00;1.85;;;18.60;97.10;;;;;;4880164;29;20037;-88
2023/10/24 04:20:30;;;;;;;5.95;2.05;;;18.70;97.10;;;;;;4879264;29;20033;-88
2023/10/24 04:23:00;;;;;;;2.90;1.80;;;18.70;97.20;;;;;;4879175;29;20032;-87
2023/10/24 04:25:26;;;;;;;10.15;2.50;;;18.60;97.10;;;;;;4878013;29;20525;-88
2023/10/24 04:27:52;;;;;;;4.22;2.15;;;18.50;97.10;;;;;;4862518;29;20124;-88
2023/10/24 04:30:17;;;;;;;2.97;2.30;;;18.50;97.10;;;;;;4879268;29;20105;-88
2023/10/24 04:32:43;;;;;;;5.70;1.90;;;18.50;97.10;;;;;;4862923;29;20037;-88
2023/10/24 04:35:09;;;;;;;3.97;1.95;;;18.50;97.10;;;;;;4879407;29;20500;-88
2023/10/24 04:37:35;;;;;;;5.28;1.92;;;18.60;97.10;;;;;;4879476;29;20360;-88
2023/10/24 04:40:01;;;;;;;4.95;1.85;;;18.50;97.10;;;;;;4878061;29;20036;-88
2023/10/24 04:42:26;;;;;;;4.05;1.95;;;18.50;97.20;;;;;;4878972;29;20036;-88
2023/10/24 04:44:52;;;;;;;4.60;2.60;;;18.50;97.10;;;;;;4862339;29;20071;-88
2023/10/24 04:47:17;;;;;;;2.90;1.88;;;18.50;97.10;;;;;;4878991;29;20037;-89
2023/10/24 04:49:43;;;;;;;5.18;2.22;;;18.50;97.20;;;;;;4878812;29;20129;-87
2023/10/24 04:52:09;;;;;;;2.83;1.88;;;18.50;97.20;;;;;;4879015;29;20076;-87
2023/10/24 04:54:35;;;;;;;6.10;2.90;;;18.50;97.20;;;;;;4878981;29;20033;-89
2023/10/24 04:57:00;;;;;;;2.15;1.70;;;18.50;97.30;;;;;;4860691;29;20413;-87
2023/10/24 04:59:27;;;;;;;3.42;1.60;;;18.40;97.30;;;;;;4879551;29;20041;-89
2023/10/24 05:01:53;;;;;;;7.60;2.17;;;18.40;97.20;;;;;;4878676;29;20065;-89
2023/10/24 05:04:18;;;;;;;3.25;2.00;;;18.40;97.30;;;;;;4878794;29;20113;-85
2023/10/24 05:06:44;;;;;;;2.63;2.05;;;18.40;97.40;;;;;;4880544;29;20029;-88
2023/10/24 05:09:11;;;;;;;2.22;1.70;;;18.40;97.40;;;;;;4865707;29;20029;-88
2023/10/24 05:11:39;;;;;;;3.15;1.67;;;18.40;97.40;;;;;;4881776;29;20444;-87
2023/10/24 05:14:05;;;;;;;1.77;1.60;;;18.40;97.40;;;;;;4880586;29;20026;-87
2023/10/24 05:16:31;;;;;;;4.53;1.77;;;18.50;97.40;;;;;;4882033;29;20039;-87
2023/10/24 05:18:57;;;;;;;4.25;2.20;;;18.50;97.40;;;;;;4881983;29;20132;-77
2023/10/24 05:21:22;;;;;;;4.68;2.20;;;18.50;97.40;;;;;;4877281;29;20500;-77
2023/10/24 05:23:48;;;;;;;4.57;2.17;;;18.40;97.40;;;;;;4879100;29;20044;-78
2023/10/24 05:26:14;;;;;;;4.45;2.35;;;18.50;97.40;;;;;;4881420;29;20036;-78
2023/10/24 05:28:39;;;;;;;3.33;2.08;;;18.50;97.40;;;;;;4881901;29;20104;-78
2023/10/24 05:31:08;;;;;;;2.92;1.75;;;18.50;97.20;;;;;;4879695;29;20048;-78
2023/10/24 05:33:38;;;;;;;3.17;2.00;;;18.50;97.10;;;;;;4879097;29;20029;-78
2023/10/24 05:36:08;;;;;;;4.35;2.03;;;18.50;97.10;;;;;;4859413;29;20044;-78
2023/10/24 05:38:33;;;;;;;5.47;1.80;;;18.50;97.00;;;;;;4858955;29;20048;-77
2023/10/24 05:41:00;;;;;;;8.73;3.25;;;18.50;97.10;;;;;;4876420;29;20037;-77
2023/10/24 05:43:26;;;;;;;6.05;1.80;;;18.50;97.00;;;;;;4878330;29;20040;-78
2023/10/24 05:45:52;;;;;;;3.00;1.73;;;18.50;96.90;;;;;;4878748;29;20060;-78
2023/10/24 05:48:17;;;;;;;4.70;1.60;;;18.50;96.90;;;;;;4878236;29;20052;-77
2023/10/24 05:50:44;;;;;;;4.45;1.88;;;18.40;96.80;;;;;;4879640;29;20072;-77
2023/10/24 05:53:10;;;;;;;2.30;1.55;;;18.50;96.70;;;;;;4881001;29;20061;-88
2023/10/24 05:55:35;;;;;;;3.80;1.58;;;18.40;96.70;;;;;;4881070;29;20438;-88
2023/10/24 05:58:01;;;;;;;2.50;1.40;;;18.50;96.70;;;;;;4881569;29;20482;-89
2023/10/24 06:00:27;;;;;;;2.72;1.40;;;18.50;96.70;;;;;;4886676;29;20032;-89
2023/10/24 06:02:53;;;;;;;3.92;1.40;;;18.50;96.60;;;;;;4884918;29;20049;-87
2023/10/24 06:05:19;;;;;;;2.25;1.15;;;18.50;96.50;;;;;;4880443;29;20017;-88
2023/10/24 06:07:44;;;;;;;2.00;1.00;;;18.50;96.50;;;;;;4881362;29;20486;-90
2023/10/24 06:10:10;;;;;;;2.30;1.20;;;18.50;96.50;;;;;;4861723;29;20029;-89
2023/10/24 06:12:36;;;;;;;2.22;1.05;;;18.40;96.50;;;;;;4879962;29;20104;-89
2023/10/24 06:15:06;;;;;;;1.83;1.10;;;18.40;96.40;;;;;;4881022;29;20036;-89
2023/10/24 06:17:31;;;;;;;2.07;1.30;;;18.40;96.50;;;;;;4881804;29;20025;-88
2023/10/24 06:19:57;;;;;;;4.95;1.48;;;18.40;96.60;;;;;;4863838;29;20691;-88
2023/10/24 06:22:23;;;;;;;3.08;1.27;;;18.40;96.60;;;;;;4881140;29;20033;-88
2023/10/24 06:24:49;;;;;;;4.60;1.08;;;18.50;96.60;;;;;;4880353;29;20068;-89
2023/10/24 06:27:16;;;;;;;1.70;1.10;;;18.40;96.50;;;;;;4877413;29;20104;-79
2023/10/24 06:29:42;;;;;;;3.63;1.23;;;18.50;96.70;;;;;;4879867;29;20045;-80
2023/10/24 06:32:07;;;;;;;2.08;0.80;;;18.40;96.70;;;;;;4879218;29;20103;-78
2023/10/24 06:34:33;;;;;;;3.30;0.98;;;18.50;96.70;;;;;;4874784;29;20394;-79
2023/10/24 06:36:59;;;;;;;3.92;1.33;;;18.50;96.70;;;;;;4875504;29;20038;-78
2023/10/24 06:39:25;;;;;;;2.05;0.85;;;18.50;96.80;;;;;;4875919;29;20037;-78
2023/10/24 06:41:51;;;;;;;4.25;0.98;;;18.50;96.60;;;;;;4864005;29;20144;-78
2023/10/24 06:44:16;;;;;;;3.00;1.30;;;18.50;96.70;;;;;;4861290;29;20120;-78
2023/10/24 06:46:42;;;;;;;1.17;0.70;;;18.50;96.60;;;;;;4876751;29;20033;-78
2023/10/24 06:49:08;;;;;;;3.63;0.80;;;18.50;96.60;;;;;;4862851;29;20056;-78
2023/10/24 06:51:34;;;;;;;1.67;0.77;;;18.50;96.70;;;;;;4880623;29;20481;-79
2023/10/24 06:54:00;;;;;;;3.08;0.90;;;18.50;96.70;;;;;;4859137;29;20465;-78
2023/10/24 06:56:25;;;;;;;4.40;1.10;;;18.50;96.80;;;;;;4862247;29;20045;-78
2023/10/24 06:58:51;;;;;;;2.72;1.02;;;18.60;96.80;;;;;;4863446;29;20562;-79
2023/10/24 07:01:16;;;;;;;2.33;0.50;;;18.50;97.00;;;;;;4879834;29;20043;-79
2023/10/24 07:03:42;;;;;;;1.67;0.90;;;18.50;97.00;;;;;;4878619;29;20073;-78
2023/10/24 07:06:10;;;;;;;1.58;0.93;;;18.50;97.10;;;;;;4879928;29;20040;-79
2023/10/24 07:08:36;;;;;;;2.70;1.00;;;18.50;97.00;;;;;;4862808;29;20479;-80
2023/10/24 07:11:02;;;;;;;3.47;1.02;;;18.50;97.10;;;;;;4880152;29;20062;-79
2023/10/24 07:13:29;;;;;;;2.05;1.20;;;18.50;97.20;;;;;;4873704;29;20029;-81
2023/10/24 07:15:54;;;;;;;2.08;1.00;;;18.50;97.30;;;;;;4879783;29;20366;-81
2023/10/24 07:18:20;;;;;;;1.17;0.88;;;18.50;97.30;;;;;;4877512;29;20056;-82
2023/10/24 07:20:47;;;;;;;1.88;1.00;;;18.50;97.40;;;;;;4875452;29;20525;-82
2023/10/24 07:23:12;;;;;;;3.05;0.85;;;18.50;97.40;;;;;;4876208;29;20382;-82
2023/10/24 07:25:38;;;;;;;1.80;0.90;;;18.50;97.60;;;;;;4874606;29;20045;-82
2023/10/24 07:28:05;;;;;;;3.35;1.25;;;18.50;97.60;;;;;;4874709;29;20037;-84
2023/10/24 07:30:31;;;;;;;2.17;0.88;;;18.50;97.70;;;;;;4877727;29;20033;-83
2023/10/24 07:32:57;;;;;;;2.65;1.02;;;18.50;97.80;;;;;;4876761;29;20477;-80
2023/10/24 07:35:23;;;;;;;1.55;1.20;;;18.50;97.90;;;;;;4867267;29;20187;-81
2023/10/24 07:37:49;;;;;;;1.45;0.80;;;18.60;98.00;;;;;;4865451;29;20065;-80
2023/10/24 07:40:16;;;;;;;2.97;1.30;;;18.50;98.00;;;;;;4877007;29;20033;-80
2023/10/24 07:42:42;;;;;;;2.97;1.25;;;18.50;98.10;;;;;;4875227;29;20033;-80
2023/10/24 07:45:08;;;;;;;3.13;0.90;;;18.50;98.20;;;;;;4876835;29;20060;-79
2023/10/24 07:47:34;;;;;;;2.65;1.08;;;18.50;98.30;;;;;;4879057;29;20502;-80
2023/10/24 07:49:59;;;;;;;3.63;1.00;;;18.50;98.60;;;;;;4860744;29;20041;-80
2023/10/24 07:52:25;;;;;;;6.03;1.55;;;18.40;98.50;;;;;;4862904;29;20378;-80
2023/10/24 07:54:51;;;;;;;4.70;1.40;;;18.40;98.90;;;;;;4877419;29;20362;-79
2023/10/24 07:57:17;;;;;;;3.30;1.27;;;18.40;98.70;;;;;;4877195;29;20047;-80
2023/10/24 07:59:42;;;;;;;4.90;1.40;;;18.40;98.90;;;;;;4873213;29;20088;-79
2023/10/24 08:02:08;;;;;;;4.90;2.42;;;18.30;99.10;;;;;;4849927;29;20043;-80
2023/10/24 08:04:34;;;;;;;5.32;1.65;;;18.20;99.30;;;;;;4874648;29;20036;-81
2023/10/24 08:07:01;;;;;;;4.00;1.95;;;18.20;99.50;;;;;;4878999;29;20116;-80
2023/10/24 08:09:27;;;;;;;3.65;1.83;;;18.10;99.70;;;;;;4860501;29;20037;-80
2023/10/24 08:11:53;;;;;;;3.92;1.33;;;18.00;99.90;;;;;;4878282;29;20112;-81
2023/10/24 08:14:19;;;;;;;5.90;1.80;;;17.90;99.90;;;;;;4862993;29;20041;-81
2023/10/24 08:16:45;;;;;;;6.13;1.33;;;17.90;99.90;;;;;;4877603;29;20037;-82
2023/10/24 08:19:10;;;;;;;5.22;2.25;;;17.90;99.90;;;;;;4873915;29;20804;-79
2023/10/24 08:21:36;;;;;;;3.25;1.50;;;17.90;99.90;;;;;;4870024;29;20049;-80
2023/10/24 08:24:02;;;;;;;4.93;1.70;;;17.90;99.90;;;;;;4870923;29;20110;-81
2023/10/24 08:26:27;;;;;;;2.33;0.98;;;17.80;99.90;;;;;;4877096;29;20035;-82
2023/10/24 08:28:53;;;;;;;3.58;1.30;;;17.80;99.90;;;;;;4875239;29;20107;-81
2023/10/24 08:31:19;;;;;;;5.03;1.70;;;17.80;99.90;;;;;;4876616;29;20550;-82
2023/10/24 08:33:45;;;;;;;6.07;1.60;;;17.90;99.90;;;;;;4874148;29;20037;-80
2023/10/24 08:36:10;;;;;;;4.05;1.40;;;17.90;99.90;;;;;;4872309;29;20348;-81
2023/10/24 08:38:37;;;;;;;3.05;1.55;;;18.00;99.90;;;;;;4875005;29;20037;-80
2023/10/24 08:41:03;;;;;;;1.98;1.08;;;18.00;99.90;;;;;;4875111;29;20044;-82
2023/10/24 08:43:29;;;;;;;5.18;1.30;;;18.00;99.90;;;;;;4873358;29;20029;-81
2023/10/24 08:45:57;;;;;;;4.45;2.00;;;18.00;99.90;;;;;;4877219;29;20391;-80
2023/10/24 08:48:24;;;;;;;3.22;1.90;;;18.10;99.90;;;;;;4868322;29;20037;-81
2023/10/24 08:50:50;;;;;;;4.78;1.67;;;18.10;99.90;;;;;;4859668;29;20045;-81
2023/10/24 08:53:16;;;;;;;5.22;2.13;;;18.10;99.90;;;;;;4879628;29;20025;-80
2023/10/24 08:55:54;;;;;;;3.25;1.98;;;18.20;99.90;;;;;;4879396;29;20100;-81
2023/10/24 08:58:20;;;;;;;7.20;1.92;;;18.10;99.90;;;;;;4861007;29;20620;-81
2023/10/24 09:00:50;;;;;;;3.60;1.90;;;18.10;99.90;;;;;;4875531;29;20529;-87
2023/10/24 09:03:16;;;;;;;3.83;1.70;;;18.10;99.90;;;;;;4882400;29;20611;-89
2023/10/24 09:05:46;;;;;;;3.15;1.40;;;18.10;99.90;;;;;;4869088;29;20033;-89
2023/10/24 09:08:18;;;;;;;4.20;1.23;;;18.10;99.90;;;;;;4878726;29;20064;-80
2023/10/24 09:10:44;;;;;;;3.13;1.45;;;18.10;99.90;;;;;;4879909;29;20029;-81
2023/10/24 09:13:10;;;;;;;4.60;1.60;;;18.20;99.90;;;;;;4862427;29;20088;-81
2023/10/24 09:15:36;;;;;;;4.07;1.55;;;18.10;99.90;;;;;;4879298;29;20046;-81
2023/10/24 09:18:05;;;;;;;2.80;1.38;;;18.20;99.90;;;;;;4878415;29;20057;-81
2023/10/24 09:20:33;;;;;;;2.33;1.40;;;18.20;99.90;;;;;;4861088;29;20041;-81
2023/10/24 09:23:11;;;;;;;2.63;1.40;;;18.30;99.90;;;;;;4875425;29;20208;-89
2023/10/24 09:25:37;;;;;;;4.22;1.52;;;18.30;99.90;;;;;;4871536;29;20471;-89
2023/10/24 09:28:21;;;;;;;2.85;1.45;;;18.30;99.90;;;;;;4881422;29;20092;-80
2023/10/24 09:30:47;;;;;;;3.40;1.50;;;18.40;99.90;;;;;;4879878;29;20044;-80
2023/10/24 09:33:12;;;;;;;4.18;1.45;;;18.40;99.90;;;;;;4876002;29;20041;-81
2023/10/24 09:35:38;;;;;;;4.97;1.70;;;18.40;99.90;;;;;;4881480;29;20508;-81
2023/10/24 09:38:08;;;;;;;2.08;1.25;;;18.40;99.90;;;;;;4881064;29;20036;-80
2023/10/24 09:40:39;;;;;;;4.70;1.37;;;18.40;99.90;;;;;;4877512;29;20036;-79
2023/10/24 09:43:12;;;;;;;3.65;1.60;;;18.40;99.90;;;;;;4879525;29;20040;-81
2023/10/24 09:45:44;;;;;;;1.73;1.20;;;18.40;99.90;;;;;;4865169;29;20449;-81
2023/10/24 09:48:11;;;;;;;3.80;1.30;;;18.50;99.90;;;;;;4879066;29;20029;-81
2023/10/24 09:50:41;;;;;;;1.88;1.60;;;18.50;99.90;;;;;;4877391;29;20041;-81
2023/10/24 09:53:08;;;;;;;3.83;1.40;;;18.50;99.90;;;;;;4880485;29;20033;-81
2023/10/24 09:55:48;;;;;;;3.58;1.50;;;18.60;99.90;;;;;;4881813;29;20032;-81
2023/10/24 09:58:16;;;;;;;10.02;1.65;;;18.60;99.90;;;;;;4888347;29;20066;-87
2023/10/24 10:00:42;;;;;;;4.47;1.52;;;18.60;99.90;;;;;;4883194;29;20503;-87
2023/10/24 10:03:09;;;;;;;4.38;1.35;;;18.70;99.90;;;;;;4892579;29;20017;-87
2023/10/24 10:05:38;;;;;;;6.97;2.08;;;18.70;99.90;;;;;;4880566;29;20173;-86
2023/10/24 10:08:07;;;;;;;3.25;1.75;;;18.80;99.90;;;;;;4876223;29;20073;-89
2023/10/24 10:10:36;;;;;;;4.13;1.40;;;18.80;99.90;;;;;;4880406;29;20056;-87
2023/10/24 10:13:06;;;;;;;5.47;2.03;;;18.90;99.90;;;;;;4880986;29;20033;-88
2023/10/24 10:15:59;;;;;;;5.00;2.30;;;18.90;99.90;;;;;;4879330;29;20111;-87
2023/10/24 10:18:55;;;;;;;6.65;2.20;;;19.00;99.90;;;;;;4867707;29;20053;-88
2023/10/24 10:21:47;;;;;;;4.97;1.88;;;19.00;99.90;;;;;;4862975;29;20044;-88
2023/10/24 10:24:15;;;;;;;5.38;1.88;;;19.10;99.90;;;;;;4879849;29;20033;-88
2023/10/24 10:26:53;;;;;;;4.47;2.08;;;19.10;99.90;;;;;;4880653;29;20080;-87
2023/10/24 10:29:40;;;;;;;4.97;1.92;;;19.20;99.90;;;;;;4879144;29;20397;-87
2023/10/24 10:32:25;;;;;;;4.03;2.13;;;19.20;99.90;;;;;;4872654;29;20102;-87
2023/10/24 10:34:51;;;;;;;3.63;2.13;;;19.30;99.90;;;;;;4869222;29;20494;-88
2023/10/24 10:37:17;;;;;;;2.55;1.98;;;19.30;99.90;;;;;;4879526;29;20028;-88
2023/10/24 10:40:14;;;;;;;5.15;2.60;;;19.20;99.90;;;;;;4876951;29;20037;-88
2023/10/24 10:42:50;;;;;;;4.13;2.03;;;19.20;99.90;;;;;;4880479;29;20446;-88
2023/10/24 10:45:22;;;;;;;4.00;1.92;;;19.20;99.90;;;;;;4880497;29;20029;-87
2023/10/24 10:47:48;;;;;;;3.03;1.90;;;19.20;99.90;;;;;;4880579;29;20040;-88
2023/10/24 10:50:22;;;;;;;3.78;1.95;;;19.20;99.90;;;;;;4880574;29;20387;-88
2023/10/24 10:52:51;;;;;;;7.38;2.10;;;19.20;99.90;;;;;;4880378;29;20033;-88
2023/10/24 10:55:59;;;;;;;8.48;1.92;;;19.20;99.90;;;;;;4879909;29;20029;-88
2023/10/24 10:59:06;;;;;;;4.53;1.90;;;19.20;99.90;;;;;;4861092;29;20101;-87
2023/10/24 11:02:00;;;;;;;8.63;2.47;;;19.20;99.90;;;;;;4848958;29;20041;-88
2023/10/24 11:04:27;;;;;;;4.57;2.40;;;19.20;99.90;;;;;;4853696;29;20379;-88
2023/10/24 11:06:54;;;;;;;5.07;2.30;;;19.20;99.90;;;;;;4879311;29;20064;-86
2023/10/24 11:09:22;;;;;;;2.92;1.80;;;19.20;99.90;;;;;;4879747;29;20041;-88
2023/10/24 11:12:08;;;;;;;8.10;3.05;;;19.30;99.90;;;;;;4879956;29;20486;-88
2023/10/24 11:14:34;;;;;;;8.45;2.58;;;19.30;99.90;;;;;;4878341;29;20112;-88
2023/10/24 11:17:01;;;;;;;8.55;2.70;;;19.30;99.90;;;;;;4878110;29;20104;-88
2023/10/24 11:19:28;;;;;;;8.25;3.13;;;19.30;99.90;;;;;;4879147;29;20064;-87
2023/10/24 11:21:55;;;;;;;8.20;2.83;;;19.30;99.90;;;;;;4878623;29;20035;-87
2023/10/24 11:24:22;;;;;;;20.02;4.40;;;19.40;99.90;;;;;;4880055;29;20051;-80
2023/10/24 11:26:58;;;;;;;8.00;2.95;;;19.40;99.90;;;;;;4879108;29;20501;-80
2023/10/24 11:29:25;;;;;;;7.15;2.40;;;19.40;99.90;;;;;;4879439;29;20033;-80
2023/10/24 11:31:50;;;;;;;5.07;2.20;;;19.40;99.90;;;;;;4879662;29;20057;-83
2023/10/24 11:34:17;;;;;;;4.72;2.70;;;19.40;99.90;;;;;;4882197;29;20060;-86
2023/10/24 11:36:44;;;;;;;10.00;2.42;;;19.40;99.90;;;;;;4872520;29;20048;-85
2023/10/24 11:39:14;;;;;;;5.95;2.08;;;19.40;99.90;;;;;;4887764;29;20100;-85
2023/10/24 11:41:40;;;;;;;5.72;2.60;;;19.50;99.90;;;;;;4885495;29;20024;-86
2023/10/24 11:44:07;;;;;;;7.05;2.58;;;19.50;99.90;;;;;;4886329;29;20025;-85
2023/10/24 11:46:44;;;;;;;7.72;2.33;;;19.50;99.90;;;;;;4882884;29;20402;-84
2023/10/24 11:49:10;;;;;;;7.18;2.80;;;19.50;99.90;;;;;;4880189;29;20035;-85
2023/10/24 11:51:37;;;;;;;12.20;3.00;;;19.60;99.90;;;;;;4880478;29;20553;-87
2023/10/24 11:54:07;;;;;;;13.23;2.70;;;19.60;99.90;;;;;;4879194;29;20033;-88
2023/10/24 11:56:33;;;;;;;10.07;3.28;;;19.60;99.90;;;;;;4874652;29;20359;-88
2023/10/24 11:59:04;;;;;;;8.85;2.70;;;19.50;99.90;;;;;;4876716;29;20104;-87
2023/10/24 12:01:32;;;;;;;5.97;2.58;;;19.50;99.90;;;;;;4873081;29;20137;-81
2023/10/24 12:03:59;;;;;;;4.15;2.20;;;19.40;99.90;;;;;;4876907;29;20392;-81
2023/10/24 12:06:26;;;;;;;3.13;1.88;;;19.40;99.90;;;;;;4860232;29;20359;-81
2023/10/24 12:08:53;;;;;;;2.05;1.30;;;19.30;99.90;;;;;;4876726;29;20037;-81
2023/10/24 12:11:21;;;;;;;1.75;1.40;;;19.30;99.90;;;;;;4877225;29;20029;-81
2023/10/24 12:13:47;;;;;;;1.88;1.10;;;19.20;99.90;;;;;;4873436;29;20127;-81
2023/10/24 12:16:13;;;;;;;1.73;1.13;;;19.30;99.90;;;;;;4876222;29;20028;-81
2023/10/24 12:18:39;;;;;;;2.55;1.38;;;19.30;99.90;;;;;;4877010;29;20045;-81
2023/10/24 12:21:05;;;;;;;2.72;1.27;;;19.30;99.90;;;;;;4860013;29;20041;-81
2023/10/24 12:23:31;;;;;;;1.55;1.00;;;19.20;99.90;;;;;;4877136;29;20486;-82
2023/10/24 12:25:56;;;;;;;3.67;1.50;;;19.20;99.90;;;;;;4877042;29;20037;-81
2023/10/24 12:28:22;;;;;;;1.80;1.50;;;19.20;99.90;;;;;;4874029;29;20434;-81
2023/10/24 12:30:48;;;;;;;2.25;1.58;;;19.20;99.90;;;;;;4877082;29;20064;-81
2023/10/24 12:33:14;;;;;;;2.60;1.67;;;19.20;99.90;;;;;;4876938;29;20037;-82
2023/10/24 12:35:39;;;;;;;2.45;1.45;;;19.20;99.90;;;;;;4876659;29;20076;-81
2023/10/24 12:38:05;;;;;;;2.75;1.60;;;19.30;99.90;;;;;;4877466;29;20382;-81
2023/10/24 12:40:31;;;;;;;1.45;1.05;;;19.30;99.90;;;;;;4877028;29;20025;-81
2023/10/24 12:42:57;;;;;;;2.50;1.10;;;19.30;99.90;;;;;;4873147;29;20430;-81
2023/10/24 12:45:23;;;;;;;1.38;0.98;;;19.40;99.90;;;;;;4876882;29;20036;-81
2023/10/24 12:47:49;;;;;;;2.80;1.10;;;19.40;99.90;;;;;;4877111;29;20057;-81